Terminal Aerodrome Forecast
Issued by NWS

Home | Current Version | Previous Version | Text Only | Print | Product List | Glossary On
Versions: 1 2 3 4 5 6 7 8 9 10 11 12 13 14 15 16 17 18 19 20 21 22 23 24 25 26
353
FTUS41 KCAR 231720
TAFBHB
TAF
KBHB 231720Z 2318/2418 09008KT P6SM BKN170
     FM240200 19011G21KT 5SM -RA OVC017
     FM240500 22011G24KT P6SM OVC009
     FM241000 26008KT P6SM BKN080
     FM241100 26008KT P6SM SCT130=

USA.gov is the U.S. government's official web portal to all federal, state and local government web resources and services.